sensor_id;sensor_type;location;lat;lon;timestamp;P1;durP1;ratioP1;P2;durP2;ratioP2
66927;SDS011;59882;45.624;11.698;2023-05-10T00:01:46;6.63;;;1.40;;
66927;SDS011;59882;45.624;11.698;2023-05-10T00:04:11;5.57;;;1.20;;
66927;SDS011;59882;45.624;11.698;2023-05-10T00:06:37;5.03;;;1.67;;
66927;SDS011;59882;45.624;11.698;2023-05-10T00:09:03;6.83;;;1.40;;
66927;SDS011;59882;45.624;11.698;2023-05-10T00:11:28;5.07;;;1.60;;
66927;SDS011;59882;45.624;11.698;2023-05-10T00:13:54;4.80;;;1.60;;
66927;SDS011;59882;45.624;11.698;2023-05-10T00:16:20;5.03;;;1.50;;
66927;SDS011;59882;45.624;11.698;2023-05-10T00:18:46;8.30;;;1.30;;
66927;SDS011;59882;45.624;11.698;2023-05-10T00:21:11;4.27;;;1.43;;
66927;SDS011;59882;45.624;11.698;2023-05-10T00:23:37;4.37;;;1.70;;
66927;SDS011;59882;45.624;11.698;2023-05-10T00:26:03;3.85;;;1.40;;
66927;SDS011;59882;45.624;11.698;2023-05-10T00:28:28;4.40;;;1.40;;
66927;SDS011;59882;45.624;11.698;2023-05-10T00:30:54;5.28;;;1.75;;
66927;SDS011;59882;45.624;11.698;2023-05-10T00:33:20;6.18;;;1.65;;
66927;SDS011;59882;45.624;11.698;2023-05-10T00:35:46;5.40;;;0.90;;
66927;SDS011;59882;45.624;11.698;2023-05-10T00:38:11;5.93;;;1.65;;
66927;SDS011;59882;45.624;11.698;2023-05-10T00:40:37;4.93;;;1.23;;
66927;SDS011;59882;45.624;11.698;2023-05-10T00:43:03;4.67;;;1.53;;
66927;SDS011;59882;45.624;11.698;2023-05-10T00:45:29;5.97;;;1.73;;
66927;SDS011;59882;45.624;11.698;2023-05-10T00:47:57;4.57;;;1.75;;
66927;SDS011;59882;45.624;11.698;2023-05-10T00:50:25;6.15;;;2.03;;
66927;SDS011;59882;45.624;11.698;2023-05-10T00:52:51;4.50;;;1.77;;
66927;SDS011;59882;45.624;11.698;2023-05-10T00:55:17;4.95;;;1.70;;
66927;SDS011;59882;45.624;11.698;2023-05-10T00:57:43;4.97;;;1.80;;
66927;SDS011;59882;45.624;11.698;2023-05-10T01:00:09;5.67;;;1.30;;
66927;SDS011;59882;45.624;11.698;2023-05-10T01:02:36;5.80;;;1.70;;
66927;SDS011;59882;45.624;11.698;2023-05-10T01:05:02;5.63;;;1.98;;
66927;SDS011;59882;45.624;11.698;2023-05-10T01:07:31;8.00;;;1.58;;
66927;SDS011;59882;45.624;11.698;2023-05-10T01:09:58;5.13;;;1.87;;
66927;SDS011;59882;45.624;11.698;2023-05-10T01:12:23;5.28;;;1.85;;
66927;SDS011;59882;45.624;11.698;2023-05-10T01:14:50;5.15;;;1.85;;
66927;SDS011;59882;45.624;11.698;2023-05-10T01:17:15;4.90;;;2.30;;
66927;SDS011;59882;45.624;11.698;2023-05-10T01:19:41;4.38;;;1.98;;
66927;SDS011;59882;45.624;11.698;2023-05-10T01:27:36;3.55;;;1.60;;
66927;SDS011;59882;45.624;11.698;2023-05-10T01:35:37;7.60;;;2.60;;
66927;SDS011;59882;45.624;11.698;2023-05-10T01:40:48;5.18;;;2.50;;
66927;SDS011;59882;45.624;11.698;2023-05-10T01:43:21;5.20;;;2.00;;
66927;SDS011;59882;45.624;11.698;2023-05-10T01:48:35;6.13;;;2.00;;
66927;SDS011;59882;45.624;11.698;2023-05-10T01:51:06;8.35;;;2.38;;
66927;SDS011;59882;45.624;11.698;2023-05-10T01:53:34;6.25;;;2.00;;
66927;SDS011;59882;45.624;11.698;2023-05-10T01:56:04;8.57;;;2.00;;
66927;SDS011;59882;45.624;11.698;2023-05-10T01:58:31;5.32;;;2.10;;
66927;SDS011;59882;45.624;11.698;2023-05-10T02:01:00;5.33;;;2.17;;
66927;SDS011;59882;45.624;11.698;2023-05-10T02:03:27;5.53;;;2.00;;
66927;SDS011;59882;45.624;11.698;2023-05-10T02:05:55;4.10;;;1.90;;
66927;SDS011;59882;45.624;11.698;2023-05-10T02:08:22;5.50;;;2.22;;
66927;SDS011;59882;45.624;11.698;2023-05-10T02:10:50;5.30;;;2.03;;
66927;SDS011;59882;45.624;11.698;2023-05-10T02:13:18;6.00;;;2.30;;
66927;SDS011;59882;45.624;11.698;2023-05-10T02:15:46;6.10;;;1.90;;
66927;SDS011;59882;45.624;11.698;2023-05-10T02:18:14;4.22;;;2.05;;
66927;SDS011;59882;45.624;11.698;2023-05-10T02:20:41;4.20;;;1.90;;
66927;SDS011;59882;45.624;11.698;2023-05-10T02:23:10;4.22;;;1.95;;
66927;SDS011;59882;45.624;11.698;2023-05-10T02:25:36;5.50;;;1.80;;
66927;SDS011;59882;45.624;11.698;2023-05-10T02:28:04;4.97;;;1.90;;
66927;SDS011;59882;45.624;11.698;2023-05-10T02:30:32;6.13;;;2.53;;
66927;SDS011;59882;45.624;11.698;2023-05-10T02:32:59;8.95;;;2.58;;
66927;SDS011;59882;45.624;11.698;2023-05-10T02:35:27;3.67;;;1.67;;
66927;SDS011;59882;45.624;11.698;2023-05-10T02:37:53;4.57;;;2.10;;
66927;SDS011;59882;45.624;11.698;2023-05-10T02:40:20;4.90;;;2.28;;
66927;SDS011;59882;45.624;11.698;2023-05-10T02:42:47;4.68;;;2.05;;
66927;SDS011;59882;45.624;11.698;2023-05-10T02:45:18;7.15;;;1.90;;
66927;SDS011;59882;45.624;11.698;2023-05-10T02:47:47;4.15;;;1.90;;
66927;SDS011;59882;45.624;11.698;2023-05-10T02:50:13;6.83;;;2.00;;
66927;SDS011;59882;45.624;11.698;2023-05-10T02:52:40;5.22;;;2.20;;
66927;SDS011;59882;45.624;11.698;2023-05-10T02:55:12;4.50;;;1.92;;
66927;SDS011;59882;45.624;11.698;2023-05-10T02:57:41;4.15;;;2.08;;
66927;SDS011;59882;45.624;11.698;2023-05-10T03:00:14;5.63;;;2.03;;
66927;SDS011;59882;45.624;11.698;2023-05-10T03:02:40;5.50;;;2.40;;
66927;SDS011;59882;45.624;11.698;2023-05-10T03:05:06;4.35;;;2.00;;
66927;SDS011;59882;45.624;11.698;2023-05-10T03:07:32;5.63;;;1.67;;
66927;SDS011;59882;45.624;11.698;2023-05-10T03:09:58;3.97;;;1.90;;
66927;SDS011;59882;45.624;11.698;2023-05-10T03:15:05;5.10;;;1.83;;
66927;SDS011;59882;45.624;11.698;2023-05-10T03:17:40;6.88;;;2.63;;
66927;SDS011;59882;45.624;11.698;2023-05-10T03:20:29;4.32;;;1.90;;
66927;SDS011;59882;45.624;11.698;2023-05-10T03:23:02;4.03;;;1.80;;
66927;SDS011;59882;45.624;11.698;2023-05-10T03:25:36;4.47;;;2.25;;
66927;SDS011;59882;45.624;11.698;2023-05-10T03:28:03;5.78;;;2.58;;
66927;SDS011;59882;45.624;11.698;2023-05-10T03:30:30;5.13;;;2.05;;
66927;SDS011;59882;45.624;11.698;2023-05-10T03:32:56;5.50;;;2.08;;
66927;SDS011;59882;45.624;11.698;2023-05-10T03:35:22;5.63;;;2.27;;
66927;SDS011;59882;45.624;11.698;2023-05-10T03:37:48;6.55;;;2.20;;
66927;SDS011;59882;45.624;11.698;2023-05-10T03:40:14;5.67;;;2.37;;
66927;SDS011;59882;45.624;11.698;2023-05-10T03:42:40;5.88;;;2.20;;
66927;SDS011;59882;45.624;11.698;2023-05-10T03:45:06;5.07;;;1.97;;
66927;SDS011;59882;45.624;11.698;2023-05-10T03:47:32;5.63;;;2.30;;
66927;SDS011;59882;45.624;11.698;2023-05-10T03:49:58;5.40;;;1.70;;
66927;SDS011;59882;45.624;11.698;2023-05-10T03:52:24;4.70;;;1.70;;
66927;SDS011;59882;45.624;11.698;2023-05-10T03:54:50;5.50;;;1.90;;
66927;SDS011;59882;45.624;11.698;2023-05-10T03:57:15;6.07;;;1.97;;
66927;SDS011;59882;45.624;11.698;2023-05-10T03:59:41;4.05;;;2.00;;
66927;SDS011;59882;45.624;11.698;2023-05-10T04:02:07;4.70;;;1.87;;
66927;SDS011;59882;45.624;11.698;2023-05-10T04:04:32;7.67;;;1.90;;
66927;SDS011;59882;45.624;11.698;2023-05-10T04:06:58;4.38;;;2.20;;
66927;SDS011;59882;45.624;11.698;2023-05-10T04:09:23;4.73;;;2.13;;
66927;SDS011;59882;45.624;11.698;2023-05-10T04:11:49;5.10;;;2.28;;
66927;SDS011;59882;45.624;11.698;2023-05-10T04:14:14;5.10;;;2.13;;
66927;SDS011;59882;45.624;11.698;2023-05-10T04:16:41;5.55;;;1.92;;
66927;SDS011;59882;45.624;11.698;2023-05-10T04:19:06;5.40;;;2.13;;
66927;SDS011;59882;45.624;11.698;2023-05-10T04:21:32;4.57;;;2.17;;
66927;SDS011;59882;45.624;11.698;2023-05-10T04:23:58;4.47;;;1.87;;
66927;SDS011;59882;45.624;11.698;2023-05-10T04:26:23;6.47;;;2.13;;
66927;SDS011;59882;45.624;11.698;2023-05-10T04:28:50;4.30;;;2.03;;
66927;SDS011;59882;45.624;11.698;2023-05-10T04:31:16;6.43;;;2.60;;
66927;SDS011;59882;45.624;11.698;2023-05-10T04:33:42;4.68;;;2.22;;
66927;SDS011;59882;45.624;11.698;2023-05-10T04:36:07;5.53;;;2.33;;
66927;SDS011;59882;45.624;11.698;2023-05-10T04:38:33;7.63;;;2.25;;
66927;SDS011;59882;45.624;11.698;2023-05-10T04:41:09;5.07;;;2.30;;
66927;SDS011;59882;45.624;11.698;2023-05-10T04:43:35;5.97;;;2.47;;
66927;SDS011;59882;45.624;11.698;2023-05-10T04:46:02;6.45;;;2.17;;
66927;SDS011;59882;45.624;11.698;2023-05-10T04:48:28;4.15;;;1.90;;
66927;SDS011;59882;45.624;11.698;2023-05-10T04:50:54;5.07;;;2.20;;
66927;SDS011;59882;45.624;11.698;2023-05-10T04:53:20;11.02;;;2.30;;
66927;SDS011;59882;45.624;11.698;2023-05-10T04:55:46;4.40;;;2.33;;
66927;SDS011;59882;45.624;11.698;2023-05-10T04:58:12;5.95;;;2.20;;
66927;SDS011;59882;45.624;11.698;2023-05-10T05:00:38;4.72;;;1.70;;
66927;SDS011;59882;45.624;11.698;2023-05-10T05:03:04;5.00;;;2.20;;
66927;SDS011;59882;45.624;11.698;2023-05-10T05:05:30;4.43;;;2.10;;
66927;SDS011;59882;45.624;11.698;2023-05-10T05:07:55;5.63;;;2.27;;
66927;SDS011;59882;45.624;11.698;2023-05-10T05:10:21;6.53;;;2.88;;
66927;SDS011;59882;45.624;11.698;2023-05-10T05:12:47;4.43;;;2.63;;
66927;SDS011;59882;45.624;11.698;2023-05-10T05:15:12;6.22;;;2.78;;
66927;SDS011;59882;45.624;11.698;2023-05-10T05:17:38;4.40;;;2.47;;
66927;SDS011;59882;45.624;11.698;2023-05-10T05:20:04;4.93;;;2.80;;
66927;SDS011;59882;45.624;11.698;2023-05-10T05:22:30;6.07;;;2.97;;
66927;SDS011;59882;45.624;11.698;2023-05-10T05:24:56;5.63;;;3.53;;
66927;SDS011;59882;45.624;11.698;2023-05-10T05:27:23;6.37;;;3.03;;
66927;SDS011;59882;45.624;11.698;2023-05-10T05:29:54;6.18;;;2.90;;
66927;SDS011;59882;45.624;11.698;2023-05-10T05:32:23;6.70;;;3.03;;
66927;SDS011;59882;45.624;11.698;2023-05-10T05:34:49;5.45;;;2.92;;
66927;SDS011;59882;45.624;11.698;2023-05-10T05:37:15;5.17;;;2.60;;
66927;SDS011;59882;45.624;11.698;2023-05-10T05:39:41;6.43;;;2.80;;
66927;SDS011;59882;45.624;11.698;2023-05-10T05:42:08;6.85;;;2.97;;
66927;SDS011;59882;45.624;11.698;2023-05-10T05:44:34;5.20;;;3.22;;
66927;SDS011;59882;45.624;11.698;2023-05-10T05:46:59;6.20;;;3.20;;
66927;SDS011;59882;45.624;11.698;2023-05-10T05:49:25;6.83;;;3.17;;
66927;SDS011;59882;45.624;11.698;2023-05-10T05:51:51;5.93;;;2.78;;
66927;SDS011;59882;45.624;11.698;2023-05-10T05:54:16;8.40;;;3.57;;
66927;SDS011;59882;45.624;11.698;2023-05-10T05:56:42;7.28;;;3.33;;
66927;SDS011;59882;45.624;11.698;2023-05-10T05:59:09;7.33;;;3.70;;
66927;SDS011;59882;45.624;11.698;2023-05-10T06:01:35;9.23;;;4.45;;
66927;SDS011;59882;45.624;11.698;2023-05-10T06:04:01;7.85;;;3.90;;
66927;SDS011;59882;45.624;11.698;2023-05-10T06:06:26;6.67;;;3.60;;
66927;SDS011;59882;45.624;11.698;2023-05-10T06:08:52;10.25;;;4.15;;
66927;SDS011;59882;45.624;11.698;2023-05-10T06:11:18;9.63;;;3.90;;
66927;SDS011;59882;45.624;11.698;2023-05-10T06:13:44;7.17;;;3.20;;
66927;SDS011;59882;45.624;11.698;2023-05-10T06:16:09;8.57;;;3.10;;
66927;SDS011;59882;45.624;11.698;2023-05-10T06:18:35;8.80;;;3.22;;
66927;SDS011;59882;45.624;11.698;2023-05-10T06:21:01;7.83;;;3.87;;
66927;SDS011;59882;45.624;11.698;2023-05-10T06:23:26;7.32;;;3.47;;
66927;SDS011;59882;45.624;11.698;2023-05-10T06:25:52;7.47;;;2.93;;
66927;SDS011;59882;45.624;11.698;2023-05-10T06:28:18;4.55;;;2.70;;
66927;SDS011;59882;45.624;11.698;2023-05-10T06:30:43;8.03;;;3.60;;
66927;SDS011;59882;45.624;11.698;2023-05-10T06:33:09;6.10;;;2.72;;
66927;SDS011;59882;45.624;11.698;2023-05-10T06:35:35;7.43;;;3.07;;
66927;SDS011;59882;45.624;11.698;2023-05-10T06:38:01;6.15;;;3.40;;
66927;SDS011;59882;45.624;11.698;2023-05-10T06:40:27;6.55;;;3.17;;
66927;SDS011;59882;45.624;11.698;2023-05-10T06:42:53;5.73;;;3.00;;
66927;SDS011;59882;45.624;11.698;2023-05-10T06:45:18;6.00;;;3.20;;
66927;SDS011;59882;45.624;11.698;2023-05-10T06:47:44;6.53;;;3.03;;
66927;SDS011;59882;45.624;11.698;2023-05-10T06:50:10;7.05;;;3.08;;
66927;SDS011;59882;45.624;11.698;2023-05-10T06:52:36;4.33;;;2.53;;
66927;SDS011;59882;45.624;11.698;2023-05-10T06:55:03;5.97;;;2.65;;
66927;SDS011;59882;45.624;11.698;2023-05-10T06:57:29;5.93;;;2.97;;
66927;SDS011;59882;45.624;11.698;2023-05-10T06:59:55;6.00;;;3.00;;
66927;SDS011;59882;45.624;11.698;2023-05-10T07:02:21;4.90;;;2.10;;
66927;SDS011;59882;45.624;11.698;2023-05-10T07:05:00;5.28;;;2.90;;
66927;SDS011;59882;45.624;11.698;2023-05-10T07:07:27;8.65;;;3.10;;
66927;SDS011;59882;45.624;11.698;2023-05-10T07:09:52;7.97;;;2.80;;
66927;SDS011;59882;45.624;11.698;2023-05-10T07:12:18;5.40;;;2.97;;
66927;SDS011;59882;45.624;11.698;2023-05-10T07:14:44;5.57;;;2.73;;
66927;SDS011;59882;45.624;11.698;2023-05-10T07:17:10;5.57;;;2.80;;
66927;SDS011;59882;45.624;11.698;2023-05-10T07:19:36;6.88;;;3.08;;
66927;SDS011;59882;45.624;11.698;2023-05-10T07:22:01;6.23;;;2.60;;
66927;SDS011;59882;45.624;11.698;2023-05-10T07:24:27;5.20;;;3.10;;
66927;SDS011;59882;45.624;11.698;2023-05-10T07:26:53;5.53;;;2.63;;
66927;SDS011;59882;45.624;11.698;2023-05-10T07:29:18;6.32;;;3.15;;
66927;SDS011;59882;45.624;11.698;2023-05-10T07:31:44;6.77;;;3.07;;
66927;SDS011;59882;45.624;11.698;2023-05-10T07:34:09;7.97;;;3.00;;
66927;SDS011;59882;45.624;11.698;2023-05-10T07:36:35;8.40;;;3.88;;
66927;SDS011;59882;45.624;11.698;2023-05-10T07:39:01;9.70;;;3.50;;
66927;SDS011;59882;45.624;11.698;2023-05-10T07:41:27;6.40;;;3.20;;
66927;SDS011;59882;45.624;11.698;2023-05-10T07:43:52;6.97;;;3.07;;
66927;SDS011;59882;45.624;11.698;2023-05-10T07:46:18;6.00;;;3.28;;
66927;SDS011;59882;45.624;11.698;2023-05-10T07:48:44;6.63;;;2.63;;
66927;SDS011;59882;45.624;11.698;2023-05-10T07:51:10;6.03;;;3.53;;
66927;SDS011;59882;45.624;11.698;2023-05-10T07:53:37;6.75;;;3.55;;
66927;SDS011;59882;45.624;11.698;2023-05-10T07:56:19;6.28;;;3.95;;
66927;SDS011;59882;45.624;11.698;2023-05-10T07:58:45;9.00;;;4.20;;
66927;SDS011;59882;45.624;11.698;2023-05-10T08:01:11;10.00;;;3.80;;
66927;SDS011;59882;45.624;11.698;2023-05-10T08:03:37;7.20;;;3.47;;
66927;SDS011;59882;45.624;11.698;2023-05-10T08:06:02;9.07;;;3.65;;
66927;SDS011;59882;45.624;11.698;2023-05-10T08:08:28;6.70;;;3.40;;
66927;SDS011;59882;45.624;11.698;2023-05-10T08:10:54;9.00;;;3.67;;
66927;SDS011;59882;45.624;11.698;2023-05-10T08:13:20;5.37;;;3.60;;
66927;SDS011;59882;45.624;11.698;2023-05-10T08:15:46;6.20;;;3.28;;
66927;SDS011;59882;45.624;11.698;2023-05-10T08:18:12;8.40;;;3.63;;
66927;SDS011;59882;45.624;11.698;2023-05-10T08:20:38;7.20;;;3.95;;
66927;SDS011;59882;45.624;11.698;2023-05-10T08:23:03;5.63;;;3.77;;
66927;SDS011;59882;45.624;11.698;2023-05-10T08:25:29;6.85;;;3.55;;
66927;SDS011;59882;45.624;11.698;2023-05-10T08:27:54;7.97;;;3.30;;
66927;SDS011;59882;45.624;11.698;2023-05-10T08:30:20;7.03;;;3.17;;
66927;SDS011;59882;45.624;11.698;2023-05-10T08:32:46;5.65;;;3.45;;
66927;SDS011;59882;45.624;11.698;2023-05-10T08:35:11;5.03;;;3.07;;
66927;SDS011;59882;45.624;11.698;2023-05-10T08:37:37;7.37;;;3.03;;
66927;SDS011;59882;45.624;11.698;2023-05-10T08:40:02;6.30;;;3.30;;
66927;SDS011;59882;45.624;11.698;2023-05-10T08:42:28;6.15;;;3.00;;
66927;SDS011;59882;45.624;11.698;2023-05-10T08:44:56;8.85;;;3.53;;
66927;SDS011;59882;45.624;11.698;2023-05-10T08:47:24;5.87;;;3.07;;
66927;SDS011;59882;45.624;11.698;2023-05-10T08:49:50;7.50;;;3.60;;
66927;SDS011;59882;45.624;11.698;2023-05-10T08:52:17;6.13;;;3.63;;
66927;SDS011;59882;45.624;11.698;2023-05-10T08:54:43;8.07;;;3.47;;
66927;SDS011;59882;45.624;11.698;2023-05-10T08:57:10;7.20;;;3.70;;
66927;SDS011;59882;45.624;11.698;2023-05-10T08:59:35;10.05;;;5.55;;
66927;SDS011;59882;45.624;11.698;2023-05-10T09:02:04;7.72;;;4.80;;
66927;SDS011;59882;45.624;11.698;2023-05-10T09:04:31;8.93;;;5.13;;
66927;SDS011;59882;45.624;11.698;2023-05-10T09:06:56;9.47;;;4.70;;
66927;SDS011;59882;45.624;11.698;2023-05-10T09:09:23;8.10;;;4.28;;
66927;SDS011;59882;45.624;11.698;2023-05-10T09:11:50;5.25;;;3.30;;
66927;SDS011;59882;45.624;11.698;2023-05-10T09:14:16;7.00;;;3.60;;
66927;SDS011;59882;45.624;11.698;2023-05-10T09:16:43;9.07;;;5.10;;
66927;SDS011;59882;45.624;11.698;2023-05-10T09:19:09;8.75;;;4.28;;
66927;SDS011;59882;45.624;11.698;2023-05-10T09:21:36;7.40;;;4.05;;
66927;SDS011;59882;45.624;11.698;2023-05-10T09:24:03;8.33;;;3.93;;
66927;SDS011;59882;45.624;11.698;2023-05-10T09:26:30;8.00;;;3.97;;
66927;SDS011;59882;45.624;11.698;2023-05-10T09:28:57;5.90;;;3.78;;
66927;SDS011;59882;45.624;11.698;2023-05-10T09:31:24;7.78;;;4.30;;
66927;SDS011;59882;45.624;11.698;2023-05-10T09:33:51;8.20;;;4.43;;
66927;SDS011;59882;45.624;11.698;2023-05-10T09:36:16;7.13;;;3.50;;
66927;SDS011;59882;45.624;11.698;2023-05-10T09:38:49;6.95;;;3.95;;
66927;SDS011;59882;45.624;11.698;2023-05-10T09:41:22;7.32;;;3.70;;
66927;SDS011;59882;45.624;11.698;2023-05-10T09:43:48;6.27;;;3.57;;
66927;SDS011;59882;45.624;11.698;2023-05-10T09:46:15;7.15;;;4.00;;
66927;SDS011;59882;45.624;11.698;2023-05-10T09:48:42;6.53;;;4.22;;
66927;SDS011;59882;45.624;11.698;2023-05-10T09:51:22;8.77;;;3.60;;
66927;SDS011;59882;45.624;11.698;2023-05-10T09:53:48;8.90;;;4.50;;
66927;SDS011;59882;45.624;11.698;2023-05-10T09:56:32;8.00;;;4.20;;
66927;SDS011;59882;45.624;11.698;2023-05-10T09:59:03;6.88;;;3.97;;
66927;SDS011;59882;45.624;11.698;2023-05-10T10:01:28;6.38;;;3.65;;
66927;SDS011;59882;45.624;11.698;2023-05-10T10:03:55;7.95;;;4.47;;
66927;SDS011;59882;45.624;11.698;2023-05-10T10:06:22;8.18;;;4.47;;
66927;SDS011;59882;45.624;11.698;2023-05-10T10:08:48;9.33;;;3.93;;
66927;SDS011;59882;45.624;11.698;2023-05-10T10:11:15;7.65;;;3.67;;
66927;SDS011;59882;45.624;11.698;2023-05-10T10:13:41;8.20;;;4.55;;
66927;SDS011;59882;45.624;11.698;2023-05-10T10:16:07;7.67;;;4.60;;
66927;SDS011;59882;45.624;11.698;2023-05-10T10:18:33;8.02;;;4.18;;
66927;SDS011;59882;45.624;11.698;2023-05-10T10:21:03;6.43;;;3.85;;
66927;SDS011;59882;45.624;11.698;2023-05-10T10:23:35;7.82;;;4.82;;
66927;SDS011;59882;45.624;11.698;2023-05-10T10:26:02;6.17;;;3.90;;
66927;SDS011;59882;45.624;11.698;2023-05-10T10:31:45;7.57;;;4.28;;
66927;SDS011;59882;45.624;11.698;2023-05-10T10:34:30;6.87;;;3.80;;
66927;SDS011;59882;45.624;11.698;2023-05-10T10:36:57;8.85;;;4.75;;
66927;SDS011;59882;45.624;11.698;2023-05-10T10:39:28;7.30;;;4.78;;
66927;SDS011;59882;45.624;11.698;2023-05-10T10:41:55;8.55;;;6.13;;
66927;SDS011;59882;45.624;11.698;2023-05-10T10:49:49;7.88;;;4.72;;
66927;SDS011;59882;45.624;11.698;2023-05-10T10:54:58;8.85;;;4.47;;
66927;SDS011;59882;45.624;11.698;2023-05-10T10:57:25;8.57;;;4.60;;
66927;SDS011;59882;45.624;11.698;2023-05-10T10:59:51;7.80;;;4.38;;
66927;SDS011;59882;45.624;11.698;2023-05-10T11:02:46;6.88;;;4.40;;
66927;SDS011;59882;45.624;11.698;2023-05-10T11:05:23;7.00;;;3.85;;
66927;SDS011;59882;45.624;11.698;2023-05-10T11:07:53;9.00;;;4.93;;
66927;SDS011;59882;45.624;11.698;2023-05-10T11:10:22;7.93;;;4.00;;
66927;SDS011;59882;45.624;11.698;2023-05-10T11:13:02;8.10;;;4.90;;
66927;SDS011;59882;45.624;11.698;2023-05-10T11:15:30;8.75;;;4.00;;
66927;SDS011;59882;45.624;11.698;2023-05-10T11:17:56;7.93;;;4.70;;
66927;SDS011;59882;45.624;11.698;2023-05-10T11:20:21;8.90;;;4.87;;
66927;SDS011;59882;45.624;11.698;2023-05-10T11:22:52;8.88;;;4.35;;
66927;SDS011;59882;45.624;11.698;2023-05-10T11:25:19;8.57;;;4.47;;
66927;SDS011;59882;45.624;11.698;2023-05-10T11:27:45;9.55;;;5.07;;
66927;SDS011;59882;45.624;11.698;2023-05-10T11:30:13;8.83;;;4.63;;
66927;SDS011;59882;45.624;11.698;2023-05-10T11:32:40;6.90;;;5.05;;
66927;SDS011;59882;45.624;11.698;2023-05-10T11:35:09;8.27;;;5.00;;
66927;SDS011;59882;45.624;11.698;2023-05-10T11:37:35;9.75;;;5.10;;
66927;SDS011;59882;45.624;11.698;2023-05-10T11:40:01;7.47;;;5.07;;
66927;SDS011;59882;45.624;11.698;2023-05-10T11:42:28;8.98;;;5.75;;
66927;SDS011;59882;45.624;11.698;2023-05-10T11:44:54;8.25;;;5.50;;
66927;SDS011;59882;45.624;11.698;2023-05-10T11:47:19;10.15;;;5.43;;
66927;SDS011;59882;45.624;11.698;2023-05-10T11:49:45;9.67;;;5.20;;
66927;SDS011;59882;45.624;11.698;2023-05-10T11:52:12;9.98;;;5.57;;
66927;SDS011;59882;45.624;11.698;2023-05-10T11:54:45;10.77;;;5.20;;
66927;SDS011;59882;45.624;11.698;2023-05-10T11:57:17;6.80;;;4.73;;
66927;SDS011;59882;45.624;11.698;2023-05-10T11:59:43;8.35;;;5.00;;
66927;SDS011;59882;45.624;11.698;2023-05-10T12:02:09;10.93;;;5.80;;
66927;SDS011;59882;45.624;11.698;2023-05-10T12:04:35;8.07;;;4.77;;
66927;SDS011;59882;45.624;11.698;2023-05-10T12:07:01;8.43;;;4.88;;
66927;SDS011;59882;45.624;11.698;2023-05-10T12:09:27;11.13;;;5.40;;
66927;SDS011;59882;45.624;11.698;2023-05-10T12:11:55;8.07;;;5.43;;
66927;SDS011;59882;45.624;11.698;2023-05-10T12:14:24;7.65;;;5.20;;
66927;SDS011;59882;45.624;11.698;2023-05-10T12:16:50;9.20;;;5.80;;
66927;SDS011;59882;45.624;11.698;2023-05-10T12:19:19;7.72;;;4.97;;
66927;SDS011;59882;45.624;11.698;2023-05-10T12:21:47;9.45;;;5.25;;
66927;SDS011;59882;45.624;11.698;2023-05-10T12:24:13;7.33;;;4.80;;
66927;SDS011;59882;45.624;11.698;2023-05-10T12:26:42;8.18;;;4.60;;
66927;SDS011;59882;45.624;11.698;2023-05-10T12:29:13;9.90;;;5.00;;
66927;SDS011;59882;45.624;11.698;2023-05-10T12:31:53;10.93;;;5.43;;
66927;SDS011;59882;45.624;11.698;2023-05-10T12:34:32;9.07;;;5.40;;
66927;SDS011;59882;45.624;11.698;2023-05-10T12:37:00;7.53;;;5.43;;
66927;SDS011;59882;45.624;11.698;2023-05-10T12:39:43;8.82;;;5.53;;
66927;SDS011;59882;45.624;11.698;2023-05-10T12:42:11;9.98;;;5.80;;
66927;SDS011;59882;45.624;11.698;2023-05-10T12:44:36;8.80;;;5.70;;
66927;SDS011;59882;45.624;11.698;2023-05-10T12:47:02;12.63;;;7.20;;
66927;SDS011;59882;45.624;11.698;2023-05-10T12:49:28;10.95;;;6.68;;
66927;SDS011;59882;45.624;11.698;2023-05-10T12:51:53;9.83;;;6.00;;
66927;SDS011;59882;45.624;11.698;2023-05-10T12:54:19;10.40;;;6.37;;
66927;SDS011;59882;45.624;11.698;2023-05-10T12:56:44;9.55;;;5.95;;
66927;SDS011;59882;45.624;11.698;2023-05-10T12:59:10;11.27;;;6.17;;
66927;SDS011;59882;45.624;11.698;2023-05-10T13:01:36;8.52;;;5.47;;
66927;SDS011;59882;45.624;11.698;2023-05-10T13:04:01;11.40;;;6.50;;
66927;SDS011;59882;45.624;11.698;2023-05-10T13:06:27;9.60;;;6.73;;
66927;SDS011;59882;45.624;11.698;2023-05-10T13:08:52;14.88;;;8.55;;
66927;SDS011;59882;45.624;11.698;2023-05-10T13:11:18;13.47;;;9.97;;
66927;SDS011;59882;45.624;11.698;2023-05-10T13:13:44;13.48;;;10.43;;
66927;SDS011;59882;45.624;11.698;2023-05-10T13:16:10;15.32;;;9.45;;
66927;SDS011;59882;45.624;11.698;2023-05-10T13:18:36;13.70;;;9.77;;
66927;SDS011;59882;45.624;11.698;2023-05-10T13:21:01;11.03;;;8.50;;
66927;SDS011;59882;45.624;11.698;2023-05-10T13:23:28;9.90;;;7.00;;
66927;SDS011;59882;45.624;11.698;2023-05-10T13:25:54;11.10;;;6.10;;
66927;SDS011;59882;45.624;11.698;2023-05-10T13:28:20;11.93;;;7.47;;
66927;SDS011;59882;45.624;11.698;2023-05-10T13:30:45;12.98;;;7.70;;
66927;SDS011;59882;45.624;11.698;2023-05-10T13:33:11;12.57;;;7.43;;
66927;SDS011;59882;45.624;11.698;2023-05-10T13:35:37;11.30;;;7.73;;
66927;SDS011;59882;45.624;11.698;2023-05-10T13:38:02;12.55;;;8.30;;
66927;SDS011;59882;45.624;11.698;2023-05-10T13:40:28;11.30;;;8.00;;
66927;SDS011;59882;45.624;11.698;2023-05-10T13:42:53;10.73;;;7.32;;
66927;SDS011;59882;45.624;11.698;2023-05-10T13:45:19;12.63;;;8.73;;
66927;SDS011;59882;45.624;11.698;2023-05-10T13:47:45;10.77;;;7.68;;
66927;SDS011;59882;45.624;11.698;2023-05-10T13:50:11;10.57;;;7.10;;
66927;SDS011;59882;45.624;11.698;2023-05-10T13:52:36;11.57;;;7.63;;
66927;SDS011;59882;45.624;11.698;2023-05-10T13:55:02;8.70;;;6.93;;
66927;SDS011;59882;45.624;11.698;2023-05-10T13:57:28;10.35;;;7.75;;
66927;SDS011;59882;45.624;11.698;2023-05-10T13:59:55;11.70;;;8.07;;
66927;SDS011;59882;45.624;11.698;2023-05-10T14:02:22;12.80;;;7.87;;
66927;SDS011;59882;45.624;11.698;2023-05-10T14:04:47;9.98;;;7.47;;
66927;SDS011;59882;45.624;11.698;2023-05-10T14:07:13;10.23;;;6.97;;
66927;SDS011;59882;45.624;11.698;2023-05-10T14:09:39;11.73;;;6.93;;
66927;SDS011;59882;45.624;11.698;2023-05-10T14:12:04;10.03;;;6.70;;
66927;SDS011;59882;45.624;11.698;2023-05-10T14:14:30;10.07;;;6.40;;
66927;SDS011;59882;45.624;11.698;2023-05-10T14:16:56;14.77;;;7.00;;
66927;SDS011;59882;45.624;11.698;2023-05-10T14:19:21;10.45;;;6.35;;
66927;SDS011;59882;45.624;11.698;2023-05-10T14:21:47;10.13;;;6.40;;
66927;SDS011;59882;45.624;11.698;2023-05-10T14:24:12;9.67;;;7.13;;
66927;SDS011;59882;45.624;11.698;2023-05-10T14:26:38;9.63;;;6.85;;
66927;SDS011;59882;45.624;11.698;2023-05-10T14:29:04;12.33;;;7.40;;
66927;SDS011;59882;45.624;11.698;2023-05-10T14:31:29;10.98;;;6.90;;
66927;SDS011;59882;45.624;11.698;2023-05-10T14:33:55;8.40;;;6.73;;
66927;SDS011;59882;45.624;11.698;2023-05-10T14:36:22;10.20;;;7.10;;
66927;SDS011;59882;45.624;11.698;2023-05-10T14:38:48;10.45;;;7.43;;
66927;SDS011;59882;45.624;11.698;2023-05-10T14:41:14;11.83;;;7.53;;
66927;SDS011;59882;45.624;11.698;2023-05-10T14:43:42;10.18;;;7.57;;
66927;SDS011;59882;45.624;11.698;2023-05-10T14:46:08;10.98;;;7.13;;
66927;SDS011;59882;45.624;11.698;2023-05-10T14:48:33;10.50;;;7.17;;
66927;SDS011;59882;45.624;11.698;2023-05-10T14:50:59;9.55;;;7.15;;
66927;SDS011;59882;45.624;11.698;2023-05-10T14:53:25;9.90;;;7.87;;
66927;SDS011;59882;45.624;11.698;2023-05-10T14:55:51;10.05;;;6.82;;
66927;SDS011;59882;45.624;11.698;2023-05-10T14:58:17;11.10;;;7.32;;
66927;SDS011;59882;45.624;11.698;2023-05-10T15:00:42;9.23;;;7.13;;
66927;SDS011;59882;45.624;11.698;2023-05-10T15:03:08;11.25;;;6.82;;